Terminal Aerodrome Forecast
Issued by NWS Twin Cities, MN

Home | Current Version | Previous Version | Graphics & Text | Print | Product List | Glossary On
Versions: 1 2 3 4 5 6 7 8 9 10 11 12 13 14 15 16 17 18 19 20 21 22
000
FTUS43 KMPX 271035 AAA
TAFEAU
TAF AMD
KEAU 271035Z 2711/2806 28008KT 6SM BR SCT008 BKN080
      TEMPO 2711/2713 3SM BR BKN005
     FM271500 26012G18KT P6SM VCSH SCT020 BKN050
     FM280000 24004KT P6SM SKC=

USA.gov is the U.S. government's official web portal to all federal, state and local government web resources and services.